sensor_id;sensor_type;location;lat;lon;timestamp;temperature;humidity
11744;DHT22;5929;51.906;7.674;2022-12-18T00:00:16;-7.70;99.90
11744;DHT22;5929;51.906;7.674;2022-12-18T00:02:42;-7.70;99.90
11744;DHT22;5929;51.906;7.674;2022-12-18T00:05:09;-7.70;99.90
11744;DHT22;5929;51.906;7.674;2022-12-18T00:07:36;-7.80;99.90
11744;DHT22;5929;51.906;7.674;2022-12-18T00:10:04;-7.90;99.90
11744;DHT22;5929;51.906;7.674;2022-12-18T00:12:31;-7.90;99.90
11744;DHT22;5929;51.906;7.674;2022-12-18T00:14:58;-7.90;99.90
11744;DHT22;5929;51.906;7.674;2022-12-18T00:17:26;-7.80;99.90
11744;DHT22;5929;51.906;7.674;2022-12-18T00:19:53;-7.90;99.90
11744;DHT22;5929;51.906;7.674;2022-12-18T00:22:20;-7.90;99.90
11744;DHT22;5929;51.906;7.674;2022-12-18T00:24:47;-7.90;99.90
11744;DHT22;5929;51.906;7.674;2022-12-18T00:27:13;-7.90;99.90
11744;DHT22;5929;51.906;7.674;2022-12-18T00:29:40;-7.70;99.90
11744;DHT22;5929;51.906;7.674;2022-12-18T00:32:07;-7.60;99.90
11744;DHT22;5929;51.906;7.674;2022-12-18T00:34:35;-7.60;99.90
11744;DHT22;5929;51.906;7.674;2022-12-18T00:37:06;-7.70;99.90
11744;DHT22;5929;51.906;7.674;2022-12-18T00:39:33;-7.80;99.90
11744;DHT22;5929;51.906;7.674;2022-12-18T00:42:00;-7.90;99.90
11744;DHT22;5929;51.906;7.674;2022-12-18T00:44:44;-7.90;99.90
11744;DHT22;5929;51.906;7.674;2022-12-18T00:47:11;-8.00;99.90
11744;DHT22;5929;51.906;7.674;2022-12-18T00:49:39;-8.00;99.90
11744;DHT22;5929;51.906;7.674;2022-12-18T00:52:06;-8.10;99.90
11744;DHT22;5929;51.906;7.674;2022-12-18T00:54:33;-8.10;99.90
11744;DHT22;5929;51.906;7.674;2022-12-18T00:57:00;-8.20;99.90
11744;DHT22;5929;51.906;7.674;2022-12-18T00:59:29;-8.20;99.90
11744;DHT22;5929;51.906;7.674;2022-12-18T01:01:56;-8.20;99.90
11744;DHT22;5929;51.906;7.674;2022-12-18T01:04:23;-8.20;99.90
11744;DHT22;5929;51.906;7.674;2022-12-18T01:06:51;-8.30;99.90
11744;DHT22;5929;51.906;7.674;2022-12-18T01:09:20;-8.40;99.90
11744;DHT22;5929;51.906;7.674;2022-12-18T01:11:47;-8.40;99.90
11744;DHT22;5929;51.906;7.674;2022-12-18T01:14:14;-8.40;99.90
11744;DHT22;5929;51.906;7.674;2022-12-18T01:16:40;-8.40;99.90
11744;DHT22;5929;51.906;7.674;2022-12-18T01:19:07;-8.40;99.90
11744;DHT22;5929;51.906;7.674;2022-12-18T01:21:34;-8.40;99.90
11744;DHT22;5929;51.906;7.674;2022-12-18T01:24:03;-8.30;99.90
11744;DHT22;5929;51.906;7.674;2022-12-18T01:26:29;-8.20;99.90
11744;DHT22;5929;51.906;7.674;2022-12-18T01:28:56;-8.00;99.90
11744;DHT22;5929;51.906;7.674;2022-12-18T01:31:26;-7.80;99.90
11744;DHT22;5929;51.906;7.674;2022-12-18T01:33:54;-7.60;99.90
11744;DHT22;5929;51.906;7.674;2022-12-18T01:36:23;-7.70;99.90
11744;DHT22;5929;51.906;7.674;2022-12-18T01:38:53;-7.90;99.90
11744;DHT22;5929;51.906;7.674;2022-12-18T01:41:24;-8.00;99.90
11744;DHT22;5929;51.906;7.674;2022-12-18T01:43:53;-8.10;99.90
11744;DHT22;5929;51.906;7.674;2022-12-18T01:46:23;-8.00;99.90
11744;DHT22;5929;51.906;7.674;2022-12-18T01:48:51;-7.90;99.90
11744;DHT22;5929;51.906;7.674;2022-12-18T01:51:19;-7.90;99.90
11744;DHT22;5929;51.906;7.674;2022-12-18T01:53:47;-8.00;99.90
11744;DHT22;5929;51.906;7.674;2022-12-18T01:56:15;-8.10;99.90
11744;DHT22;5929;51.906;7.674;2022-12-18T01:58:52;-8.00;99.90
11744;DHT22;5929;51.906;7.674;2022-12-18T02:01:21;-8.30;99.90
11744;DHT22;5929;51.906;7.674;2022-12-18T02:03:49;-8.40;99.90
11744;DHT22;5929;51.906;7.674;2022-12-18T02:06:20;-8.50;99.90
11744;DHT22;5929;51.906;7.674;2022-12-18T02:08:54;-8.50;99.90
11744;DHT22;5929;51.906;7.674;2022-12-18T02:11:37;-8.60;99.90
11744;DHT22;5929;51.906;7.674;2022-12-18T02:14:15;-8.60;99.90
11744;DHT22;5929;51.906;7.674;2022-12-18T02:16:46;-8.50;99.90
11744;DHT22;5929;51.906;7.674;2022-12-18T02:19:27;-8.40;99.90
11744;DHT22;5929;51.906;7.674;2022-12-18T02:22:11;-8.40;99.90
11744;DHT22;5929;51.906;7.674;2022-12-18T02:24:46;-8.60;99.90
11744;DHT22;5929;51.906;7.674;2022-12-18T02:27:21;-8.50;99.90
11744;DHT22;5929;51.906;7.674;2022-12-18T02:29:51;-8.50;99.90
11744;DHT22;5929;51.906;7.674;2022-12-18T02:32:24;-8.60;99.90
11744;DHT22;5929;51.906;7.674;2022-12-18T02:34:53;-8.70;99.90
11744;DHT22;5929;51.906;7.674;2022-12-18T02:37:24;-8.70;99.90
11744;DHT22;5929;51.906;7.674;2022-12-18T02:39:55;-8.50;99.90
11744;DHT22;5929;51.906;7.674;2022-12-18T02:42:24;-8.40;99.90
11744;DHT22;5929;51.906;7.674;2022-12-18T02:44:55;-8.30;99.90
11744;DHT22;5929;51.906;7.674;2022-12-18T02:47:24;-8.40;99.90
11744;DHT22;5929;51.906;7.674;2022-12-18T02:50:02;-8.30;99.90
11744;DHT22;5929;51.906;7.674;2022-12-18T02:52:34;-8.40;99.90
11744;DHT22;5929;51.906;7.674;2022-12-18T02:55:12;-8.50;99.90
11744;DHT22;5929;51.906;7.674;2022-12-18T02:57:45;-8.50;99.90
11744;DHT22;5929;51.906;7.674;2022-12-18T03:00:16;-8.60;99.90
11744;DHT22;5929;51.906;7.674;2022-12-18T03:02:48;-8.60;99.90
11744;DHT22;5929;51.906;7.674;2022-12-18T03:05:19;-8.60;99.90
11744;DHT22;5929;51.906;7.674;2022-12-18T03:07:52;-8.50;99.90
11744;DHT22;5929;51.906;7.674;2022-12-18T03:10:25;-8.40;99.90
11744;DHT22;5929;51.906;7.674;2022-12-18T03:12:58;-8.40;99.90
11744;DHT22;5929;51.906;7.674;2022-12-18T03:15:29;-8.30;99.90
11744;DHT22;5929;51.906;7.674;2022-12-18T03:18:00;-8.30;99.90
11744;DHT22;5929;51.906;7.674;2022-12-18T03:20:30;-8.30;99.90
11744;DHT22;5929;51.906;7.674;2022-12-18T03:23:04;-8.50;99.90
11744;DHT22;5929;51.906;7.674;2022-12-18T03:25:34;-8.60;99.90
11744;DHT22;5929;51.906;7.674;2022-12-18T03:28:06;-8.50;99.90
11744;DHT22;5929;51.906;7.674;2022-12-18T03:30:37;-8.60;99.90
11744;DHT22;5929;51.906;7.674;2022-12-18T03:33:07;-8.60;99.90
11744;DHT22;5929;51.906;7.674;2022-12-18T03:35:38;-8.60;99.90
11744;DHT22;5929;51.906;7.674;2022-12-18T03:38:05;-8.60;99.90
11744;DHT22;5929;51.906;7.674;2022-12-18T03:40:38;-8.70;99.90
11744;DHT22;5929;51.906;7.674;2022-12-18T03:43:10;-8.80;99.90
11744;DHT22;5929;51.906;7.674;2022-12-18T03:45:44;-8.80;99.90
11744;DHT22;5929;51.906;7.674;2022-12-18T03:48:17;-8.80;99.90
11744;DHT22;5929;51.906;7.674;2022-12-18T03:50:48;-8.90;99.90
11744;DHT22;5929;51.906;7.674;2022-12-18T03:53:24;-8.90;99.90
11744;DHT22;5929;51.906;7.674;2022-12-18T03:55:52;-9.00;99.90
11744;DHT22;5929;51.906;7.674;2022-12-18T03:58:23;-9.10;99.90
11744;DHT22;5929;51.906;7.674;2022-12-18T04:00:52;-9.00;99.90
11744;DHT22;5929;51.906;7.674;2022-12-18T04:03:20;-8.70;99.90
11744;DHT22;5929;51.906;7.674;2022-12-18T04:05:49;-8.60;99.90
11744;DHT22;5929;51.906;7.674;2022-12-18T04:08:17;-8.60;99.90
11744;DHT22;5929;51.906;7.674;2022-12-18T04:10:44;-8.60;99.90
11744;DHT22;5929;51.906;7.674;2022-12-18T04:13:11;-8.70;99.90
11744;DHT22;5929;51.906;7.674;2022-12-18T04:15:39;-8.70;99.90
11744;DHT22;5929;51.906;7.674;2022-12-18T04:18:07;-8.80;99.90
11744;DHT22;5929;51.906;7.674;2022-12-18T04:20:34;-8.80;99.90
11744;DHT22;5929;51.906;7.674;2022-12-18T04:23:01;-8.70;99.90
11744;DHT22;5929;51.906;7.674;2022-12-18T04:25:28;-8.80;99.90
11744;DHT22;5929;51.906;7.674;2022-12-18T04:27:54;-8.70;99.90
11744;DHT22;5929;51.906;7.674;2022-12-18T04:30:21;-8.60;99.90
11744;DHT22;5929;51.906;7.674;2022-12-18T04:32:49;-8.70;99.90
11744;DHT22;5929;51.906;7.674;2022-12-18T04:35:16;-8.70;99.90
11744;DHT22;5929;51.906;7.674;2022-12-18T04:37:43;-8.60;99.90
11744;DHT22;5929;51.906;7.674;2022-12-18T04:40:11;-8.70;99.90
11744;DHT22;5929;51.906;7.674;2022-12-18T04:42:39;-8.80;99.90
11744;DHT22;5929;51.906;7.674;2022-12-18T04:45:07;-8.90;99.90
11744;DHT22;5929;51.906;7.674;2022-12-18T04:47:36;-8.90;99.90
11744;DHT22;5929;51.906;7.674;2022-12-18T04:50:05;-8.90;99.90
11744;DHT22;5929;51.906;7.674;2022-12-18T04:52:32;-8.80;99.90
11744;DHT22;5929;51.906;7.674;2022-12-18T04:54:59;-8.70;99.90
11744;DHT22;5929;51.906;7.674;2022-12-18T04:57:26;-8.60;99.90
11744;DHT22;5929;51.906;7.674;2022-12-18T04:59:53;-8.50;99.90
11744;DHT22;5929;51.906;7.674;2022-12-18T05:02:19;-8.60;99.90
11744;DHT22;5929;51.906;7.674;2022-12-18T05:04:46;-8.60;99.90
11744;DHT22;5929;51.906;7.674;2022-12-18T05:07:14;-8.50;99.90
11744;DHT22;5929;51.906;7.674;2022-12-18T05:09:41;-8.50;99.90
11744;DHT22;5929;51.906;7.674;2022-12-18T05:12:08;-8.50;99.90
11744;DHT22;5929;51.906;7.674;2022-12-18T05:14:35;-8.60;99.90
11744;DHT22;5929;51.906;7.674;2022-12-18T05:17:01;-8.60;99.90
11744;DHT22;5929;51.906;7.674;2022-12-18T05:19:28;-8.60;99.90
11744;DHT22;5929;51.906;7.674;2022-12-18T05:21:55;-8.60;99.90
11744;DHT22;5929;51.906;7.674;2022-12-18T05:24:23;-8.60;99.90
11744;DHT22;5929;51.906;7.674;2022-12-18T05:26:50;-8.70;99.90
11744;DHT22;5929;51.906;7.674;2022-12-18T05:29:17;-8.70;99.90
11744;DHT22;5929;51.906;7.674;2022-12-18T05:31:43;-8.50;99.90
11744;DHT22;5929;51.906;7.674;2022-12-18T05:34:10;-8.30;99.90
11744;DHT22;5929;51.906;7.674;2022-12-18T05:36:37;-8.30;99.90
11744;DHT22;5929;51.906;7.674;2022-12-18T05:39:04;-8.30;99.90
11744;DHT22;5929;51.906;7.674;2022-12-18T05:41:33;-8.50;99.90
11744;DHT22;5929;51.906;7.674;2022-12-18T05:43:59;-8.70;99.90
11744;DHT22;5929;51.906;7.674;2022-12-18T05:46:26;-8.70;99.90
11744;DHT22;5929;51.906;7.674;2022-12-18T05:48:53;-8.80;99.90
11744;DHT22;5929;51.906;7.674;2022-12-18T05:51:22;-8.90;99.90
11744;DHT22;5929;51.906;7.674;2022-12-18T05:53:49;-8.80;99.90
11744;DHT22;5929;51.906;7.674;2022-12-18T05:56:18;-8.80;99.90
11744;DHT22;5929;51.906;7.674;2022-12-18T05:58:47;-8.70;99.90
11744;DHT22;5929;51.906;7.674;2022-12-18T06:01:19;-8.70;99.90
11744;DHT22;5929;51.906;7.674;2022-12-18T06:03:47;-8.90;99.90
11744;DHT22;5929;51.906;7.674;2022-12-18T06:06:14;-8.90;99.90
11744;DHT22;5929;51.906;7.674;2022-12-18T06:08:41;-9.00;99.90
11744;DHT22;5929;51.906;7.674;2022-12-18T06:11:08;-9.00;99.90
11744;DHT22;5929;51.906;7.674;2022-12-18T06:13:35;-9.10;99.90
11744;DHT22;5929;51.906;7.674;2022-12-18T06:16:04;-9.10;99.90
11744;DHT22;5929;51.906;7.674;2022-12-18T06:18:31;-9.10;99.90
11744;DHT22;5929;51.906;7.674;2022-12-18T06:20:59;-9.10;99.90
11744;DHT22;5929;51.906;7.674;2022-12-18T06:23:26;-9.10;99.90
11744;DHT22;5929;51.906;7.674;2022-12-18T06:25:53;-9.20;99.90
11744;DHT22;5929;51.906;7.674;2022-12-18T06:28:20;-9.10;99.90
11744;DHT22;5929;51.906;7.674;2022-12-18T06:30:47;-9.10;99.90
11744;DHT22;5929;51.906;7.674;2022-12-18T06:33:16;-9.10;99.90
11744;DHT22;5929;51.906;7.674;2022-12-18T06:35:43;-9.10;99.90
11744;DHT22;5929;51.906;7.674;2022-12-18T06:38:10;-9.00;99.90
11744;DHT22;5929;51.906;7.674;2022-12-18T06:40:37;-9.00;99.90
11744;DHT22;5929;51.906;7.674;2022-12-18T06:43:06;-9.10;99.90
11744;DHT22;5929;51.906;7.674;2022-12-18T06:45:34;-9.10;99.90
11744;DHT22;5929;51.906;7.674;2022-12-18T06:48:01;-8.90;99.90
11744;DHT22;5929;51.906;7.674;2022-12-18T06:50:29;-8.90;99.90
11744;DHT22;5929;51.906;7.674;2022-12-18T06:52:55;-8.70;99.90
11744;DHT22;5929;51.906;7.674;2022-12-18T06:55:22;-8.70;99.90
11744;DHT22;5929;51.906;7.674;2022-12-18T06:57:49;-8.80;99.90
11744;DHT22;5929;51.906;7.674;2022-12-18T07:00:16;-8.70;99.90
11744;DHT22;5929;51.906;7.674;2022-12-18T07:02:43;-8.60;99.90
11744;DHT22;5929;51.906;7.674;2022-12-18T07:05:12;-8.80;99.90
11744;DHT22;5929;51.906;7.674;2022-12-18T07:07:41;-8.80;99.90
11744;DHT22;5929;51.906;7.674;2022-12-18T07:10:08;-8.80;99.90
11744;DHT22;5929;51.906;7.674;2022-12-18T07:12:35;-8.80;99.90
11744;DHT22;5929;51.906;7.674;2022-12-18T07:15:02;-8.60;99.90
11744;DHT22;5929;51.906;7.674;2022-12-18T07:17:29;-8.50;99.90
11744;DHT22;5929;51.906;7.674;2022-12-18T07:19:56;-8.50;99.90
11744;DHT22;5929;51.906;7.674;2022-12-18T07:22:25;-8.40;99.90
11744;DHT22;5929;51.906;7.674;2022-12-18T07:24:56;-8.40;99.90
11744;DHT22;5929;51.906;7.674;2022-12-18T07:27:23;-8.30;99.90
11744;DHT22;5929;51.906;7.674;2022-12-18T07:29:50;-8.30;99.90
11744;DHT22;5929;51.906;7.674;2022-12-18T07:32:16;-8.20;99.90
11744;DHT22;5929;51.906;7.674;2022-12-18T07:34:43;-8.20;99.90
11744;DHT22;5929;51.906;7.674;2022-12-18T07:37:10;-8.10;99.90
11744;DHT22;5929;51.906;7.674;2022-12-18T07:39:37;-8.10;99.90
11744;DHT22;5929;51.906;7.674;2022-12-18T07:42:07;-8.00;99.90
11744;DHT22;5929;51.906;7.674;2022-12-18T07:44:52;-8.10;99.90
11744;DHT22;5929;51.906;7.674;2022-12-18T07:47:19;-8.00;99.90
11744;DHT22;5929;51.906;7.674;2022-12-18T07:49:45;-8.00;99.90
11744;DHT22;5929;51.906;7.674;2022-12-18T07:52:12;-7.90;99.90
11744;DHT22;5929;51.906;7.674;2022-12-18T07:54:39;-8.00;99.90
11744;DHT22;5929;51.906;7.674;2022-12-18T07:57:08;-7.90;99.90
11744;DHT22;5929;51.906;7.674;2022-12-18T07:59:35;-7.80;99.90
11744;DHT22;5929;51.906;7.674;2022-12-18T08:02:02;-7.90;99.90
11744;DHT22;5929;51.906;7.674;2022-12-18T08:04:28;-7.80;99.90
11744;DHT22;5929;51.906;7.674;2022-12-18T08:06:55;-7.80;99.90
11744;DHT22;5929;51.906;7.674;2022-12-18T08:09:22;-7.70;99.90
11744;DHT22;5929;51.906;7.674;2022-12-18T08:11:49;-7.60;99.90
11744;DHT22;5929;51.906;7.674;2022-12-18T08:14:17;-7.50;99.90
11744;DHT22;5929;51.906;7.674;2022-12-18T08:16:44;-7.50;99.90
11744;DHT22;5929;51.906;7.674;2022-12-18T08:19:11;-7.40;99.90
11744;DHT22;5929;51.906;7.674;2022-12-18T08:21:38;-7.30;99.90
11744;DHT22;5929;51.906;7.674;2022-12-18T08:24:05;-7.30;99.90
11744;DHT22;5929;51.906;7.674;2022-12-18T08:26:32;-7.20;99.90
11744;DHT22;5929;51.906;7.674;2022-12-18T08:28:59;-7.10;99.90
11744;DHT22;5929;51.906;7.674;2022-12-18T08:31:29;-6.90;99.90
11744;DHT22;5929;51.906;7.674;2022-12-18T08:33:56;-6.90;99.90
11744;DHT22;5929;51.906;7.674;2022-12-18T08:36:25;-6.90;99.90
11744;DHT22;5929;51.906;7.674;2022-12-18T08:38:53;-6.80;99.90
11744;DHT22;5929;51.906;7.674;2022-12-18T08:41:20;-6.80;99.90
11744;DHT22;5929;51.906;7.674;2022-12-18T08:43:47;-6.70;99.90
11744;DHT22;5929;51.906;7.674;2022-12-18T08:46:35;-6.60;99.90
11744;DHT22;5929;51.906;7.674;2022-12-18T08:49:03;-6.60;99.90
11744;DHT22;5929;51.906;7.674;2022-12-18T08:51:30;-6.60;99.90
11744;DHT22;5929;51.906;7.674;2022-12-18T08:54:00;-6.60;99.90
11744;DHT22;5929;51.906;7.674;2022-12-18T08:56:27;-6.60;99.90
11744;DHT22;5929;51.906;7.674;2022-12-18T08:58:55;-6.50;99.90
11744;DHT22;5929;51.906;7.674;2022-12-18T09:01:22;-6.40;99.90
11744;DHT22;5929;51.906;7.674;2022-12-18T09:03:51;-6.40;99.90
11744;DHT22;5929;51.906;7.674;2022-12-18T09:06:19;-6.30;99.90
11744;DHT22;5929;51.906;7.674;2022-12-18T09:08:46;-6.30;99.90
11744;DHT22;5929;51.906;7.674;2022-12-18T09:11:14;-6.20;99.90
11744;DHT22;5929;51.906;7.674;2022-12-18T09:13:41;-6.10;99.90
11744;DHT22;5929;51.906;7.674;2022-12-18T09:16:08;-6.00;99.90
11744;DHT22;5929;51.906;7.674;2022-12-18T09:18:35;-6.00;99.90
11744;DHT22;5929;51.906;7.674;2022-12-18T09:21:09;-5.90;99.90
11744;DHT22;5929;51.906;7.674;2022-12-18T09:23:36;-5.90;99.90
11744;DHT22;5929;51.906;7.674;2022-12-18T09:26:03;-5.80;99.90
11744;DHT22;5929;51.906;7.674;2022-12-18T09:28:30;-5.60;99.90
11744;DHT22;5929;51.906;7.674;2022-12-18T09:31:04;-5.60;99.90
11744;DHT22;5929;51.906;7.674;2022-12-18T09:33:31;-5.50;99.90
11744;DHT22;5929;51.906;7.674;2022-12-18T09:36:01;-5.40;99.90
11744;DHT22;5929;51.906;7.674;2022-12-18T09:38:29;-5.40;99.90
11744;DHT22;5929;51.906;7.674;2022-12-18T09:41:00;-5.40;99.90
11744;DHT22;5929;51.906;7.674;2022-12-18T09:43:35;-5.30;99.90
11744;DHT22;5929;51.906;7.674;2022-12-18T09:46:07;-5.20;99.90
11744;DHT22;5929;51.906;7.674;2022-12-18T09:48:36;-5.10;99.90
11744;DHT22;5929;51.906;7.674;2022-12-18T09:51:13;-5.00;99.90
11744;DHT22;5929;51.906;7.674;2022-12-18T09:53:45;-5.00;99.90
11744;DHT22;5929;51.906;7.674;2022-12-18T09:56:17;-4.90;99.90
11744;DHT22;5929;51.906;7.674;2022-12-18T09:58:49;-4.80;99.90
11744;DHT22;5929;51.906;7.674;2022-12-18T10:01:21;-4.70;99.90
11744;DHT22;5929;51.906;7.674;2022-12-18T10:03:48;-4.60;99.90
11744;DHT22;5929;51.906;7.674;2022-12-18T10:06:20;-4.50;99.90
11744;DHT22;5929;51.906;7.674;2022-12-18T10:08:55;-4.30;99.90
11744;DHT22;5929;51.906;7.674;2022-12-18T10:11:34;-4.20;99.90
11744;DHT22;5929;51.906;7.674;2022-12-18T10:14:09;-4.10;99.90
11744;DHT22;5929;51.906;7.674;2022-12-18T10:16:45;-4.00;99.90
11744;DHT22;5929;51.906;7.674;2022-12-18T10:19:25;-3.90;99.90
11744;DHT22;5929;51.906;7.674;2022-12-18T10:21:59;-3.80;99.90
11744;DHT22;5929;51.906;7.674;2022-12-18T10:24:34;-3.70;99.90
11744;DHT22;5929;51.906;7.674;2022-12-18T10:27:12;-3.70;99.90
11744;DHT22;5929;51.906;7.674;2022-12-18T10:29:41;-3.50;99.90
11744;DHT22;5929;51.906;7.674;2022-12-18T10:32:14;-3.50;99.90
11744;DHT22;5929;51.906;7.674;2022-12-18T10:34:45;-3.40;99.90
11744;DHT22;5929;51.906;7.674;2022-12-18T10:37:16;-3.40;99.90
11744;DHT22;5929;51.906;7.674;2022-12-18T10:39:45;-3.30;99.90
11744;DHT22;5929;51.906;7.674;2022-12-18T10:42:17;-3.10;99.90
11744;DHT22;5929;51.906;7.674;2022-12-18T10:45:01;-3.10;99.90
11744;DHT22;5929;51.906;7.674;2022-12-18T10:47:28;-3.00;99.90
11744;DHT22;5929;51.906;7.674;2022-12-18T10:49:55;-3.00;99.90
11744;DHT22;5929;51.906;7.674;2022-12-18T10:52:25;-2.90;99.90
11744;DHT22;5929;51.906;7.674;2022-12-18T10:54:57;-2.70;99.90
11744;DHT22;5929;51.906;7.674;2022-12-18T10:57:36;-2.60;99.90
11744;DHT22;5929;51.906;7.674;2022-12-18T11:00:25;-2.50;99.90
11744;DHT22;5929;51.906;7.674;2022-12-18T11:02:53;-2.40;99.90
11744;DHT22;5929;51.906;7.674;2022-12-18T11:05:29;-2.10;99.90
11744;DHT22;5929;51.906;7.674;2022-12-18T11:07:57;-1.80;99.90
11744;DHT22;5929;51.906;7.674;2022-12-18T11:10:30;-1.60;99.90
11744;DHT22;5929;51.906;7.674;2022-12-18T11:13:11;-1.50;99.90
11744;DHT22;5929;51.906;7.674;2022-12-18T11:15:40;-1.50;99.90
11744;DHT22;5929;51.906;7.674;2022-12-18T11:18:17;-1.40;99.90
11744;DHT22;5929;51.906;7.674;2022-12-18T11:20:51;-1.30;99.90
11744;DHT22;5929;51.906;7.674;2022-12-18T11:23:19;-1.30;99.90
11744;DHT22;5929;51.906;7.674;2022-12-18T11:25:54;-1.30;99.90
11744;DHT22;5929;51.906;7.674;2022-12-18T11:28:34;-1.40;99.90
11744;DHT22;5929;51.906;7.674;2022-12-18T11:31:23;-1.50;99.90
11744;DHT22;5929;51.906;7.674;2022-12-18T11:34:04;-1.40;99.90
11744;DHT22;5929;51.906;7.674;2022-12-18T11:36:38;-1.50;99.90
11744;DHT22;5929;51.906;7.674;2022-12-18T11:39:14;-1.50;99.90
11744;DHT22;5929;51.906;7.674;2022-12-18T11:41:49;-1.60;99.90
11744;DHT22;5929;51.906;7.674;2022-12-18T11:44:41;-1.70;99.90
11744;DHT22;5929;51.906;7.674;2022-12-18T11:47:15;-1.70;99.90
11744;DHT22;5929;51.906;7.674;2022-12-18T11:49:47;-1.70;99.90
11744;DHT22;5929;51.906;7.674;2022-12-18T11:52:18;-1.80;99.90
11744;DHT22;5929;51.906;7.674;2022-12-18T11:54:45;-1.80;99.90
11744;DHT22;5929;51.906;7.674;2022-12-18T11:57:24;-1.80;99.90
11744;DHT22;5929;51.906;7.674;2022-12-18T12:00:01;-1.80;99.90
11744;DHT22;5929;51.906;7.674;2022-12-18T12:02:43;-1.80;99.90
11744;DHT22;5929;51.906;7.674;2022-12-18T12:05:25;-1.80;99.90
11744;DHT22;5929;51.906;7.674;2022-12-18T12:08:02;-1.80;99.90
11744;DHT22;5929;51.906;7.674;2022-12-18T12:10:43;-1.80;99.90
11744;DHT22;5929;51.906;7.674;2022-12-18T12:13:28;-1.80;99.90
11744;DHT22;5929;51.906;7.674;2022-12-18T12:16:04;-1.80;99.90
11744;DHT22;5929;51.906;7.674;2022-12-18T12:18:41;-1.70;99.90
11744;DHT22;5929;51.906;7.674;2022-12-18T12:21:17;-1.70;99.90
11744;DHT22;5929;51.906;7.674;2022-12-18T12:23:51;-1.70;99.90
11744;DHT22;5929;51.906;7.674;2022-12-18T12:26:24;-1.70;99.90
11744;DHT22;5929;51.906;7.674;2022-12-18T12:29:14;-1.70;99.90
11744;DHT22;5929;51.906;7.674;2022-12-18T12:31:53;-1.60;99.90
11744;DHT22;5929;51.906;7.674;2022-12-18T12:34:26;-1.60;99.90
11744;DHT22;5929;51.906;7.674;2022-12-18T12:37:10;-1.60;99.90
11744;DHT22;5929;51.906;7.674;2022-12-18T12:39:42;-1.60;99.90
11744;DHT22;5929;51.906;7.674;2022-12-18T12:42:14;-1.60;99.90
11744;DHT22;5929;51.906;7.674;2022-12-18T12:45:05;-1.50;99.90
11744;DHT22;5929;51.906;7.674;2022-12-18T12:47:37;-1.50;99.90
11744;DHT22;5929;51.906;7.674;2022-12-18T12:50:12;-1.50;99.90
11744;DHT22;5929;51.906;7.674;2022-12-18T12:52:42;-1.50;99.90
11744;DHT22;5929;51.906;7.674;2022-12-18T12:55:16;-1.50;99.90
11744;DHT22;5929;51.906;7.674;2022-12-18T12:57:46;-1.50;99.90
11744;DHT22;5929;51.906;7.674;2022-12-18T13:00:18;-1.50;99.90
11744;DHT22;5929;51.906;7.674;2022-12-18T13:02:49;-1.50;99.90
11744;DHT22;5929;51.906;7.674;2022-12-18T13:05:23;-1.50;99.90
11744;DHT22;5929;51.906;7.674;2022-12-18T13:07:54;-1.50;99.90
11744;DHT22;5929;51.906;7.674;2022-12-18T13:10:40;-1.50;99.90
11744;DHT22;5929;51.906;7.674;2022-12-18T13:13:08;-1.40;99.90
11744;DHT22;5929;51.906;7.674;2022-12-18T13:15:42;-1.50;99.90
11744;DHT22;5929;51.906;7.674;2022-12-18T13:18:18;-1.50;99.90
11744;DHT22;5929;51.906;7.674;2022-12-18T13:20:47;-1.40;99.90
11744;DHT22;5929;51.906;7.674;2022-12-18T13:23:29;-1.50;99.90
11744;DHT22;5929;51.906;7.674;2022-12-18T13:25:58;-1.50;99.90
11744;DHT22;5929;51.906;7.674;2022-12-18T13:28:50;-1.50;99.90
11744;DHT22;5929;51.906;7.674;2022-12-18T13:34:34;-1.50;99.90
11744;DHT22;5929;51.906;7.674;2022-12-18T13:37:41;-1.50;99.90
11744;DHT22;5929;51.906;7.674;2022-12-18T13:43:28;-1.50;99.90
11744;DHT22;5929;51.906;7.674;2022-12-18T13:48:50;-1.40;99.90
11744;DHT22;5929;51.906;7.674;2022-12-18T13:51:17;-1.50;99.90
11744;DHT22;5929;51.906;7.674;2022-12-18T13:53:50;-1.50;99.90
11744;DHT22;5929;51.906;7.674;2022-12-18T13:56:21;-1.50;99.90
11744;DHT22;5929;51.906;7.674;2022-12-18T13:59:11;-1.50;99.90
11744;DHT22;5929;51.906;7.674;2022-12-18T14:01:46;-1.50;99.90
11744;DHT22;5929;51.906;7.674;2022-12-18T14:04:24;-1.50;99.90
11744;DHT22;5929;51.906;7.674;2022-12-18T14:06:54;-1.50;99.90
11744;DHT22;5929;51.906;7.674;2022-12-18T14:09:26;-1.60;99.90
11744;DHT22;5929;51.906;7.674;2022-12-18T14:11:53;-1.60;99.90
11744;DHT22;5929;51.906;7.674;2022-12-18T14:14:44;-1.60;99.90
11744;DHT22;5929;51.906;7.674;2022-12-18T14:17:11;-1.60;99.90
11744;DHT22;5929;51.906;7.674;2022-12-18T14:19:43;-1.60;99.90
11744;DHT22;5929;51.906;7.674;2022-12-18T14:22:16;-1.60;99.90
11744;DHT22;5929;51.906;7.674;2022-12-18T14:24:44;-1.60;99.90
11744;DHT22;5929;51.906;7.674;2022-12-18T14:27:19;-1.60;99.90
11744;DHT22;5929;51.906;7.674;2022-12-18T14:29:46;-1.60;99.90
11744;DHT22;5929;51.906;7.674;2022-12-18T14:32:15;-1.60;99.90
11744;DHT22;5929;51.906;7.674;2022-12-18T14:34:44;-1.50;99.90
11744;DHT22;5929;51.906;7.674;2022-12-18T14:37:13;-1.60;99.90
11744;DHT22;5929;51.906;7.674;2022-12-18T14:39:40;-1.60;99.90
11744;DHT22;5929;51.906;7.674;2022-12-18T14:42:18;-1.60;99.90
11744;DHT22;5929;51.906;7.674;2022-12-18T14:44:44;-1.60;99.90
11744;DHT22;5929;51.906;7.674;2022-12-18T14:47:14;-1.60;99.90
11744;DHT22;5929;51.906;7.674;2022-12-18T14:49:43;-1.60;99.90
11744;DHT22;5929;51.906;7.674;2022-12-18T14:52:20;-1.70;99.90
11744;DHT22;5929;51.906;7.674;2022-12-18T14:54:49;-1.70;99.90
11744;DHT22;5929;51.906;7.674;2022-12-18T14:57:21;-1.70;99.90
11744;DHT22;5929;51.906;7.674;2022-12-18T14:59:48;-1.70;99.90
11744;DHT22;5929;51.906;7.674;2022-12-18T15:02:19;-1.70;99.90
11744;DHT22;5929;51.906;7.674;2022-12-18T15:05:00;-1.70;99.90
11744;DHT22;5929;51.906;7.674;2022-12-18T15:07:38;-1.70;99.90
11744;DHT22;5929;51.906;7.674;2022-12-18T15:10:11;-1.70;99.90
11744;DHT22;5929;51.906;7.674;2022-12-18T15:12:40;-1.70;99.90
11744;DHT22;5929;51.906;7.674;2022-12-18T15:15:43;-1.70;99.90
11744;DHT22;5929;51.906;7.674;2022-12-18T15:18:13;-1.70;99.90
11744;DHT22;5929;51.906;7.674;2022-12-18T15:20:44;-1.70;99.90
11744;DHT22;5929;51.906;7.674;2022-12-18T15:23:16;-1.70;99.90
11744;DHT22;5929;51.906;7.674;2022-12-18T15:25:43;-1.70;99.90
11744;DHT22;5929;51.906;7.674;2022-12-18T15:28:19;-1.70;99.90
11744;DHT22;5929;51.906;7.674;2022-12-18T15:31:02;-1.70;99.90
11744;DHT22;5929;51.906;7.674;2022-12-18T15:33:34;-1.70;99.90
11744;DHT22;5929;51.906;7.674;2022-12-18T15:36:04;-1.70;99.90
11744;DHT22;5929;51.906;7.674;2022-12-18T15:38:32;-1.60;99.90
11744;DHT22;5929;51.906;7.674;2022-12-18T15:40:58;-1.70;99.90
11744;DHT22;5929;51.906;7.674;2022-12-18T15:43:26;-1.70;99.90
11744;DHT22;5929;51.906;7.674;2022-12-18T15:46:03;-1.60;99.90
11744;DHT22;5929;51.906;7.674;2022-12-18T15:48:32;-1.70;99.90
11744;DHT22;5929;51.906;7.674;2022-12-18T15:50:59;-1.60;99.90
11744;DHT22;5929;51.906;7.674;2022-12-18T15:53:30;-1.60;99.90
11744;DHT22;5929;51.906;7.674;2022-12-18T15:56:00;-1.60;99.90
11744;DHT22;5929;51.906;7.674;2022-12-18T15:58:44;-1.60;99.90
11744;DHT22;5929;51.906;7.674;2022-12-18T16:01:11;-1.60;99.90
11744;DHT22;5929;51.906;7.674;2022-12-18T16:03:38;-1.50;99.90
11744;DHT22;5929;51.906;7.674;2022-12-18T16:06:05;-1.50;99.90
11744;DHT22;5929;51.906;7.674;2022-12-18T16:08:34;-1.50;99.90
11744;DHT22;5929;51.906;7.674;2022-12-18T16:11:01;-1.50;99.90
11744;DHT22;5929;51.906;7.674;2022-12-18T16:13:28;-1.50;99.90
11744;DHT22;5929;51.906;7.674;2022-12-18T16:15:54;-1.50;99.90